createdAt,value
2022-08-05T00:01:36.176Z,3.50
2022-08-05T00:04:16.969Z,3.60
2022-08-05T00:06:45.473Z,7.05
2022-08-05T00:09:19.427Z,4.57
2022-08-05T00:11:48.680Z,3.83
2022-08-05T00:14:27.587Z,7.03
2022-08-05T00:16:57.220Z,6.13
2022-08-05T00:19:33.445Z,4.78
2022-08-05T00:22:11.133Z,3.45
2022-08-05T00:24:42.479Z,3.90
2022-08-05T00:27:14.173Z,2.67
2022-08-05T00:29:44.896Z,6.60
2022-08-05T00:32:15.082Z,5.53
2022-08-05T00:35:03.928Z,3.47
2022-08-05T00:37:51.395Z,4.80
2022-08-05T00:40:27.550Z,6.45
2022-08-05T00:42:58.689Z,4.93
2022-08-05T00:45:38.065Z,3.45
2022-08-05T00:48:08.127Z,3.95
2022-08-05T00:50:37.093Z,3.88
2022-08-05T00:53:09.811Z,4.95
2022-08-05T00:55:53.930Z,6.82
2022-08-05T00:58:21.647Z,5.40
2022-08-05T01:00:56.323Z,4.80
2022-08-05T01:03:24.222Z,4.43
2022-08-05T01:05:58.879Z,6.78
2022-08-05T01:08:30.393Z,4.90
2022-08-05T01:11:22.268Z,7.45
2022-08-05T01:14:03.931Z,4.28
2022-08-05T01:16:50.050Z,8.30
2022-08-05T01:19:56.334Z,5.90
2022-08-05T01:22:36.684Z,6.97
2022-08-05T01:25:40.811Z,4.30
2022-08-05T01:28:24.281Z,3.97
2022-08-05T01:30:55.350Z,3.10
2022-08-05T01:33:35.473Z,12.68
2022-08-05T01:36:12.902Z,5.80
2022-08-05T01:38:48.464Z,3.58
2022-08-05T01:41:22.041Z,5.70
2022-08-05T01:43:52.469Z,7.28
2022-08-05T01:46:42.529Z,3.17
2022-08-05T01:49:23.182Z,4.07
2022-08-05T01:51:56.510Z,4.22
2022-08-05T01:54:30.552Z,3.55
2022-08-05T01:59:50.287Z,3.72
2022-08-05T02:02:26.295Z,6.75
2022-08-05T02:04:59.479Z,6.15
2022-08-05T02:07:30.461Z,3.20
2022-08-05T02:09:58.746Z,5.17
2022-08-05T02:12:35.546Z,3.45
2022-08-05T02:15:12.356Z,7.53
2022-08-05T02:18:32.402Z,4.53
2022-08-05T02:20:41.484Z,4.80
2022-08-05T02:23:12.837Z,6.50
2022-08-05T02:25:49.104Z,3.72
2022-08-05T02:28:29.168Z,6.18
2022-08-05T02:31:07.534Z,3.72
2022-08-05T02:33:43.227Z,4.38
2022-08-05T02:36:15.566Z,3.45
2022-08-05T02:38:53.243Z,4.70
2022-08-05T02:41:23.355Z,3.53
2022-08-05T02:44:06.111Z,2.80
2022-08-05T02:46:53.114Z,5.43
2022-08-05T02:49:36.893Z,3.50
2022-08-05T02:52:11.621Z,7.88
2022-08-05T02:54:52.064Z,3.60
2022-08-05T02:58:09.708Z,3.70
2022-08-05T03:00:10.777Z,3.30
2022-08-05T03:02:42.788Z,3.47
2022-08-05T03:05:13.492Z,6.45
2022-08-05T03:08:01.603Z,3.90
2022-08-05T03:10:30.808Z,2.85
2022-08-05T03:15:28.368Z,5.93
2022-08-05T03:17:58.094Z,5.97
2022-08-05T03:20:27.316Z,3.65
2022-08-05T03:22:57.494Z,4.15
2022-08-05T03:26:03.569Z,4.57
2022-08-05T03:28:18.770Z,3.60
2022-08-05T03:30:49.609Z,5.78
2022-08-05T03:33:20.314Z,4.18
2022-08-05T03:35:50.025Z,5.10
2022-08-05T03:38:32.701Z,3.72
2022-08-05T03:41:08.417Z,3.88
2022-08-05T03:44:08.731Z,8.13
2022-08-05T03:46:29.827Z,3.20
2022-08-05T03:48:59.348Z,2.72
2022-08-05T03:52:38.779Z,2.78
2022-08-05T03:56:03.934Z,4.00
2022-08-05T03:57:41.129Z,2.88
2022-08-05T04:00:12.729Z,3.97
2022-08-05T04:02:58.172Z,3.20
2022-08-05T04:05:33.704Z,3.00
2022-08-05T04:08:03.759Z,2.75
2022-08-05T04:10:38.142Z,2.92
2022-08-05T04:13:07.474Z,4.57
2022-08-05T04:15:36.517Z,5.57
2022-08-05T04:18:06.729Z,4.43
2022-08-05T04:20:37.039Z,4.20
2022-08-05T04:23:05.175Z,3.30
2022-08-05T04:25:57.403Z,3.35
2022-08-05T04:28:21.142Z,3.40
2022-08-05T04:31:01.124Z,2.83
2022-08-05T04:33:54.923Z,4.90
2022-08-05T04:36:44.652Z,3.42
2022-08-05T04:39:07.483Z,4.63
2022-08-05T04:41:37.794Z,5.07
2022-08-05T04:44:09.605Z,3.95
2022-08-05T04:46:38.170Z,3.78
2022-08-05T04:49:05.998Z,5.03
2022-08-05T04:51:41.616Z,3.92
2022-08-05T04:54:10.441Z,3.00
2022-08-05T04:56:40.174Z,3.80
2022-08-05T04:59:22.160Z,3.38
2022-08-05T05:02:07.207Z,3.97
2022-08-05T05:04:38.245Z,4.50
2022-08-05T05:07:09.516Z,4.45
2022-08-05T05:09:38.004Z,5.07
2022-08-05T05:12:06.505Z,6.97
2022-08-05T05:14:36.227Z,5.10
2022-08-05T05:17:07.564Z,2.63
2022-08-05T05:19:44.372Z,2.80
2022-08-05T05:22:24.320Z,3.08
2022-08-05T05:24:57.653Z,3.92
2022-08-05T05:27:44.994Z,3.47
2022-08-05T05:30:29.624Z,4.38
2022-08-05T05:33:00.933Z,5.72
2022-08-05T05:35:31.638Z,2.95
2022-08-05T05:38:09.448Z,4.65
2022-08-05T05:40:49.588Z,3.33
2022-08-05T05:43:27.736Z,5.18
2022-08-05T05:46:13.770Z,5.78
2022-08-05T05:48:46.225Z,4.20
2022-08-05T05:51:20.630Z,4.82
2022-08-05T05:53:57.883Z,6.53
2022-08-05T05:56:32.507Z,3.05
2022-08-05T05:59:03.623Z,3.15
2022-08-05T06:01:37.980Z,2.47
2022-08-05T06:04:07.958Z,3.53
2022-08-05T06:06:35.881Z,3.97
2022-08-05T06:09:07.606Z,3.05
2022-08-05T06:14:07.365Z,4.13
2022-08-05T06:16:37.164Z,2.35
2022-08-05T06:19:07.583Z,2.55
2022-08-05T06:21:38.724Z,3.88
2022-08-05T06:24:12.819Z,9.63
2022-08-05T06:29:43.225Z,3.72
2022-08-05T06:32:21.005Z,3.13
2022-08-05T06:34:53.540Z,4.32
2022-08-05T06:37:55.666Z,5.35
2022-08-05T06:40:13.724Z,5.78
2022-08-05T06:42:41.739Z,3.63
2022-08-05T06:45:10.268Z,3.80
2022-08-05T06:48:37.162Z,5.47
2022-08-05T06:50:37.156Z,2.45
2022-08-05T06:53:11.580Z,4.82
2022-08-05T06:55:41.923Z,3.83
2022-08-05T06:58:29.261Z,4.20
2022-08-05T07:00:59.413Z,5.10
2022-08-05T07:03:32.490Z,5.10
2022-08-05T07:06:05.649Z,3.20
2022-08-05T07:08:42.038Z,2.85
2022-08-05T07:11:15.301Z,5.75
2022-08-05T07:14:01.267Z,5.32
2022-08-05T07:18:02.206Z,3.75
2022-08-05T07:22:28.592Z,2.63
2022-08-05T07:24:59.082Z,7.93
2022-08-05T07:27:58.585Z,3.95
2022-08-05T07:30:24.592Z,3.40
2022-08-05T07:32:58.254Z,2.20
2022-08-05T07:36:02.888Z,2.75
2022-08-05T07:38:32.835Z,4.07
2022-08-05T07:41:16.841Z,3.92
2022-08-05T07:43:51.571Z,4.35
2022-08-05T07:46:25.093Z,3.22
2022-08-05T07:49:02.311Z,3.95
2022-08-05T07:51:37.295Z,8.73
2022-08-05T07:54:09.975Z,4.60
2022-08-05T07:57:02.875Z,6.47
2022-08-05T07:59:38.082Z,4.20
2022-08-05T08:02:15.306Z,2.17
2022-08-05T08:04:44.774Z,3.13
2022-08-05T08:07:13.195Z,5.55
2022-08-05T08:09:40.932Z,2.63
2022-08-05T08:12:30.578Z,3.20
2022-08-05T08:15:02.427Z,3.53
2022-08-05T08:17:30.963Z,2.60
2022-08-05T08:20:22.572Z,6.43
2022-08-05T08:22:52.078Z,3.70
2022-08-05T08:25:26.398Z,2.10
2022-08-05T08:28:03.827Z,2.35
2022-08-05T08:30:40.828Z,3.33
2022-08-05T08:33:16.027Z,1.80
2022-08-05T08:35:53.913Z,3.13
2022-08-05T08:38:36.044Z,5.15
2022-08-05T08:41:08.147Z,8.15
2022-08-05T08:45:20.172Z,1.63
2022-08-05T08:46:29.006Z,5.63
2022-08-05T08:49:06.429Z,5.03
2022-08-05T08:52:03.337Z,3.92
2022-08-05T08:54:36.514Z,4.00
2022-08-05T08:57:06.501Z,3.00
2022-08-05T08:59:41.936Z,4.03
2022-08-05T09:02:18.991Z,2.33
2022-08-05T09:05:16.283Z,1.90
2022-08-05T09:07:39.842Z,4.88
2022-08-05T09:10:27.685Z,2.75
2022-08-05T09:13:04.511Z,2.92
2022-08-05T09:15:36.985Z,3.90
2022-08-05T09:18:08.801Z,1.85
2022-08-05T09:20:38.283Z,4.82
2022-08-05T09:23:19.730Z,2.53
2022-08-05T09:25:59.920Z,4.60
2022-08-05T09:28:31.525Z,4.00
2022-08-05T09:31:18.258Z,6.03
2022-08-05T09:33:56.279Z,2.90
2022-08-05T09:36:27.796Z,4.55
2022-08-05T09:39:03.053Z,1.95
2022-08-05T09:41:32.777Z,3.05
2022-08-05T09:44:06.202Z,8.18
2022-08-05T09:46:35.512Z,5.05
2022-08-05T09:49:19.001Z,6.95
2022-08-05T09:51:49.533Z,3.25
2022-08-05T09:54:21.390Z,3.60
2022-08-05T09:57:01.283Z,2.80
2022-08-05T09:59:35.146Z,1.92
2022-08-05T10:02:05.909Z,2.63
2022-08-05T10:04:40.950Z,6.85
2022-08-05T10:07:20.281Z,2.42
2022-08-05T10:10:14.379Z,4.45
2022-08-05T10:12:49.760Z,2.75
2022-08-05T10:15:25.829Z,4.80
2022-08-05T10:18:07.256Z,2.67
2022-08-05T10:20:40.056Z,1.85
2022-08-05T10:23:22.183Z,3.83
2022-08-05T10:25:56.954Z,6.32
2022-08-05T10:28:30.328Z,3.70
2022-08-05T10:32:54.149Z,2.42
2022-08-05T10:33:52.423Z,2.67
2022-08-05T10:36:26.281Z,3.92
2022-08-05T10:39:00.226Z,1.95
2022-08-05T10:41:46.742Z,1.85
2022-08-05T10:44:19.366Z,1.92
2022-08-05T10:46:51.075Z,1.95
2022-08-05T10:49:27.068Z,2.03
2022-08-05T10:52:05.296Z,2.35
2022-08-05T10:54:56.914Z,1.63
2022-08-05T10:57:29.566Z,1.90
2022-08-05T11:00:20.087Z,3.38
2022-08-05T11:03:23.573Z,3.70
2022-08-05T11:06:15.734Z,5.90
2022-08-05T11:09:39.152Z,3.15
2022-08-05T11:12:50.762Z,4.53
2022-08-05T11:16:00.687Z,3.22
2022-08-05T11:18:27.017Z,2.57
2022-08-05T11:20:57.648Z,2.03
2022-08-05T11:24:02.655Z,2.22
2022-08-05T11:26:28.172Z,3.97
2022-08-05T11:29:05.161Z,2.20
2022-08-05T11:31:58.122Z,3.67
2022-08-05T11:34:39.464Z,8.93
2022-08-05T11:38:29.218Z,2.67
2022-08-05T11:40:02.873Z,4.63
2022-08-05T11:42:37.963Z,2.65
2022-08-05T11:45:14.358Z,3.20
2022-08-05T11:47:54.711Z,2.63
2022-08-05T11:50:22.935Z,2.15
2022-08-05T11:52:54.386Z,2.47
2022-08-05T11:55:32.332Z,5.10
2022-08-05T11:58:09.555Z,6.20
2022-08-05T12:00:44.452Z,8.07
2022-08-05T12:03:28.586Z,2.38
2022-08-05T12:06:06.083Z,5.32
2022-08-05T12:08:51.208Z,1.75
2022-08-05T12:11:21.478Z,2.90
2022-08-05T12:13:58.576Z,2.28
2022-08-05T12:16:30.738Z,3.38
2022-08-05T12:18:58.777Z,6.93
2022-08-05T12:21:30.037Z,4.55
2022-08-05T12:24:04.514Z,2.72
2022-08-05T12:26:35.365Z,2.15
2022-08-05T12:31:46.093Z,6.18
2022-08-05T12:34:21.237Z,4.55
2022-08-05T12:36:53.313Z,2.65
2022-08-05T12:39:21.998Z,4.75
2022-08-05T12:44:33.110Z,3.30
2022-08-05T12:47:03.849Z,2.35
2022-08-05T12:50:03.113Z,3.78
2022-08-05T12:52:39.624Z,2.47
2022-08-05T12:55:23.650Z,3.95
2022-08-05T12:58:48.594Z,4.32
2022-08-05T13:02:03.141Z,3.83
2022-08-05T13:03:42.170Z,6.35
2022-08-05T13:06:15.853Z,2.35
2022-08-05T13:08:51.398Z,2.17
2022-08-05T13:11:57.945Z,2.08
2022-08-05T13:14:14.848Z,2.38
2022-08-05T13:16:47.403Z,1.52
2022-08-05T13:19:16.583Z,1.85
2022-08-05T13:21:55.909Z,3.47
2022-08-05T13:24:27.732Z,4.57
2022-08-05T13:27:17.202Z,3.78
2022-08-05T13:30:31.612Z,5.05
2022-08-05T13:32:42.275Z,2.20
2022-08-05T13:35:22.235Z,3.58
2022-08-05T13:38:05.023Z,4.93
2022-08-05T13:40:51.737Z,1.98
2022-08-05T13:43:22.189Z,3.42
2022-08-05T13:45:50.786Z,6.13
2022-08-05T13:48:58.484Z,4.28
2022-08-05T13:51:09.526Z,4.07
2022-08-05T13:53:47.540Z,2.60
2022-08-05T13:56:18.985Z,4.03
2022-08-05T14:01:27.493Z,6.32
2022-08-05T14:04:26.951Z,9.70
2022-08-05T14:06:58.629Z,5.38
2022-08-05T14:09:46.096Z,4.78
2022-08-05T14:12:18.143Z,4.55
2022-08-05T14:15:00.173Z,5.93
2022-08-05T14:17:28.264Z,3.40
2022-08-05T14:20:00.883Z,2.78
2022-08-05T14:22:34.289Z,5.32
2022-08-05T14:25:02.666Z,4.35
2022-08-05T14:27:34.279Z,2.63
2022-08-05T14:30:02.086Z,2.60
2022-08-05T14:32:32.410Z,11.43
2022-08-05T14:35:01.212Z,13.60
2022-08-05T14:37:44.834Z,3.70
2022-08-05T14:40:18.004Z,4.75
2022-08-05T14:42:45.750Z,9.15
2022-08-05T14:45:13.466Z,4.68
2022-08-05T14:48:03.417Z,7.10
2022-08-05T14:50:30.710Z,3.10
2022-08-05T14:52:59.566Z,5.28
2022-08-05T14:55:39.505Z,2.73
2022-08-05T14:58:11.553Z,9.90
2022-08-05T15:00:58.198Z,7.85
2022-08-05T15:03:26.853Z,2.40
2022-08-05T15:06:06.867Z,2.30
2022-08-05T15:08:59.363Z,4.63
2022-08-05T15:11:52.407Z,3.22
2022-08-05T15:14:33.471Z,2.78
2022-08-05T15:17:00.645Z,3.60
2022-08-05T15:19:28.483Z,4.20
2022-08-05T15:22:00.312Z,4.10
2022-08-05T15:24:29.036Z,3.75
2022-08-05T15:26:58.178Z,5.10
2022-08-05T15:29:30.311Z,2.40
2022-08-05T15:32:03.248Z,7.57
2022-08-05T15:34:34.078Z,3.63
2022-08-05T15:37:06.210Z,3.75
2022-08-05T15:41:04.708Z,2.90
2022-08-05T15:42:53.462Z,6.60
2022-08-05T15:45:12.324Z,3.58
2022-08-05T15:47:40.503Z,5.30
2022-08-05T15:50:09.622Z,9.82
2022-08-05T15:52:53.182Z,3.30
2022-08-05T15:55:24.997Z,3.25
2022-08-05T15:58:16.827Z,4.10
2022-08-05T16:00:50.273Z,3.63
2022-08-05T16:03:24.788Z,7.38
2022-08-05T16:05:52.867Z,6.72
2022-08-05T16:10:58.706Z,4.15
2022-08-05T16:13:34.109Z,3.67
2022-08-05T16:16:03.377Z,2.83
2022-08-05T16:18:32.626Z,3.80
2022-08-05T16:21:04.359Z,6.40
2022-08-05T16:23:53.284Z,10.00
2022-08-05T16:26:26.471Z,10.38
2022-08-05T16:28:56.713Z,6.95
2022-08-05T16:31:24.728Z,5.50
2022-08-05T16:33:53.697Z,4.05
2022-08-05T16:36:24.020Z,5.90
2022-08-05T16:38:55.619Z,5.32
2022-08-05T16:42:15.014Z,3.47
2022-08-05T16:44:15.415Z,3.67
2022-08-05T16:46:55.969Z,3.67
2022-08-05T16:49:26.349Z,5.63
2022-08-05T16:51:56.847Z,3.85
2022-08-05T16:54:30.360Z,7.33
2022-08-05T16:57:00.780Z,3.70
2022-08-05T16:59:30.953Z,5.88
2022-08-05T17:01:59.480Z,5.45
2022-08-05T17:04:29.110Z,5.70
2022-08-05T17:07:00.882Z,5.32
2022-08-05T17:09:30.260Z,14.02
2022-08-05T17:11:59.155Z,20.00
2022-08-05T17:14:34.142Z,40.50
2022-08-05T17:17:09.451Z,23.60
2022-08-05T17:19:45.694Z,15.25
2022-08-05T17:22:24.477Z,17.15
2022-08-05T17:24:57.250Z,24.58
2022-08-05T17:27:27.228Z,19.15
2022-08-05T17:30:02.506Z,19.25
2022-08-05T17:32:33.843Z,15.30
2022-08-05T17:37:40.209Z,13.02
2022-08-05T17:40:12.558Z,30.73
2022-08-05T17:42:41.766Z,18.35
2022-08-05T17:45:38.975Z,20.50
2022-08-05T17:48:08.019Z,17.25
2022-08-05T17:50:35.955Z,15.23
2022-08-05T17:53:05.143Z,14.68
2022-08-05T17:55:37.825Z,28.17
2022-08-05T17:58:12.850Z,9.55
2022-08-05T18:00:45.366Z,13.43
2022-08-05T18:06:11.671Z,14.60
2022-08-05T18:08:44.699Z,13.15
2022-08-05T18:11:24.234Z,14.68
2022-08-05T18:14:03.310Z,12.13
2022-08-05T18:16:33.608Z,14.45
2022-08-05T18:19:01.374Z,8.63
2022-08-05T18:22:09.438Z,11.93
2022-08-05T18:24:16.905Z,13.38
2022-08-05T18:26:44.686Z,13.88
2022-08-05T18:29:16.733Z,12.93
2022-08-05T18:31:46.171Z,12.93
2022-08-05T18:34:17.488Z,11.20
2022-08-05T18:36:49.552Z,13.70
2022-08-05T18:39:42.423Z,11.05
2022-08-05T18:42:10.946Z,14.05
2022-08-05T18:44:49.384Z,11.88
2022-08-05T18:47:26.734Z,13.23
2022-08-05T18:50:13.298Z,21.20
2022-08-05T18:52:50.455Z,15.10
2022-08-05T18:55:20.267Z,14.77
2022-08-05T18:57:53.492Z,19.77
2022-08-05T19:00:29.098Z,24.45
2022-08-05T19:03:04.185Z,18.63
2022-08-05T19:06:12.178Z,23.63
2022-08-05T19:08:30.826Z,21.55
2022-08-05T19:11:04.614Z,18.67
2022-08-05T19:13:35.977Z,17.85
2022-08-05T19:16:05.767Z,18.05
2022-08-05T19:18:56.760Z,15.48
2022-08-05T19:21:27.676Z,13.82
2022-08-05T19:24:07.299Z,12.65
2022-08-05T19:26:43.800Z,12.20
2022-08-05T19:29:24.289Z,14.65
2022-08-05T19:32:03.419Z,14.88
2022-08-05T19:34:33.658Z,12.73
2022-08-05T19:37:01.460Z,13.55
2022-08-05T19:39:30.497Z,15.02
2022-08-05T19:42:08.102Z,14.50
2022-08-05T19:44:44.869Z,15.32
2022-08-05T19:47:15.278Z,12.90
2022-08-05T19:49:46.098Z,13.07
2022-08-05T19:52:40.556Z,15.43
2022-08-05T19:55:06.863Z,16.75
2022-08-05T19:57:47.295Z,15.90
2022-08-05T20:00:23.511Z,19.45
2022-08-05T20:02:52.271Z,17.20
2022-08-05T20:05:24.529Z,19.13
2022-08-05T20:07:57.714Z,18.48
2022-08-05T20:10:27.132Z,12.32
2022-08-05T20:12:55.109Z,11.00
2022-08-05T20:15:52.253Z,16.25
2022-08-05T20:18:32.606Z,14.75
2022-08-05T20:21:00.412Z,12.70
2022-08-05T20:23:39.654Z,15.63
2022-08-05T20:26:17.291Z,14.73
2022-08-05T20:28:47.943Z,19.27
2022-08-05T20:31:16.638Z,21.20
2022-08-05T20:33:45.343Z,16.40
2022-08-05T20:36:16.370Z,18.48
2022-08-05T20:38:53.274Z,17.52
2022-08-05T20:41:26.667Z,22.73
2022-08-05T20:43:58.744Z,22.83
2022-08-05T20:46:29.946Z,25.27
2022-08-05T20:48:57.934Z,20.70
2022-08-05T20:51:27.641Z,24.27
2022-08-05T20:53:56.648Z,20.15
2022-08-05T20:56:29.787Z,18.88
2022-08-05T20:59:04.137Z,17.52
2022-08-05T21:01:42.414Z,23.67
2022-08-05T21:04:10.918Z,25.83
2022-08-05T21:06:45.921Z,15.98
2022-08-05T21:09:14.751Z,13.38
2022-08-05T21:12:09.615Z,12.07
2022-08-05T21:14:31.436Z,14.35
2022-08-05T21:17:05.497Z,12.38
2022-08-05T21:19:46.790Z,17.73
2022-08-05T21:22:21.775Z,17.80
2022-08-05T21:24:52.598Z,19.17
2022-08-05T21:27:25.391Z,20.85
2022-08-05T21:29:56.222Z,17.45
2022-08-05T21:32:27.116Z,22.85
2022-08-05T21:35:17.346Z,17.07
2022-08-05T21:37:49.671Z,17.23
2022-08-05T21:40:21.172Z,17.98
2022-08-05T21:42:49.041Z,18.17
2022-08-05T21:45:51.479Z,23.17
2022-08-05T21:48:08.033Z,18.90
2022-08-05T21:50:36.772Z,16.45
2022-08-05T21:53:16.101Z,20.25
2022-08-05T21:56:04.882Z,16.40
2022-08-05T21:58:32.533Z,18.20
2022-08-05T22:01:01.394Z,18.05
2022-08-05T22:03:51.735Z,20.83
2022-08-05T22:06:23.019Z,16.95
2022-08-05T22:09:15.122Z,19.95
2022-08-05T22:11:43.545Z,20.98
2022-08-05T22:14:34.667Z,28.45
2022-08-05T22:17:06.925Z,33.95
2022-08-05T22:20:01.441Z,35.03
2022-08-05T22:22:27.389Z,32.53
2022-08-05T22:25:21.292Z,26.52
2022-08-05T22:28:08.276Z,21.92
2022-08-05T22:30:43.969Z,18.42
2022-08-05T22:33:57.348Z,16.23
2022-08-05T22:36:14.246Z,12.77
2022-08-05T22:38:42.844Z,17.25
2022-08-05T22:41:12.199Z,14.65
2022-08-05T22:43:42.829Z,14.40
2022-08-05T22:46:13.615Z,19.88
2022-08-05T22:48:51.254Z,16.63
2022-08-05T22:51:22.652Z,14.45
2022-08-05T22:53:51.950Z,11.85
2022-08-05T22:56:30.742Z,18.95
2022-08-05T22:59:00.072Z,16.15
2022-08-05T23:01:50.866Z,19.08
2022-08-05T23:04:21.188Z,19.35
2022-08-05T23:06:48.891Z,15.02
2022-08-05T23:09:52.590Z,18.63
2022-08-05T23:12:06.616Z,16.48
2022-08-05T23:14:34.583Z,17.67
2022-08-05T23:17:24.615Z,15.95
2022-08-05T23:20:02.371Z,18.17
2022-08-05T23:22:30.884Z,19.85
2022-08-05T23:24:58.889Z,20.45
2022-08-05T23:27:42.280Z,12.90
2022-08-05T23:30:16.796Z,22.00
2022-08-05T23:32:45.129Z,16.63
2022-08-05T23:35:13.207Z,15.55
2022-08-05T23:37:41.333Z,12.68
2022-08-05T23:40:11.894Z,10.82
2022-08-05T23:42:41.049Z,11.30
2022-08-05T23:45:15.996Z,13.35
2022-08-05T23:47:48.043Z,17.35
2022-08-05T23:50:20.293Z,15.40
2022-08-05T23:52:49.828Z,14.57
2022-08-05T23:55:19.166Z,16.92
2022-08-05T23:57:48.907Z,17.67
